createdAt,value
2022-11-01T00:02:05.598Z,96539.97
2022-11-01T00:04:32.456Z,96542.84
2022-11-01T00:06:59.285Z,96547.91
2022-11-01T00:09:26.060Z,96549.53
2022-11-01T00:11:52.863Z,96546.53
2022-11-01T00:14:20.469Z,96538.41
2022-11-01T00:16:47.292Z,96544.91
2022-11-01T00:19:14.616Z,96548.34
2022-11-01T00:21:41.443Z,96543.66
2022-11-01T00:24:08.372Z,96545.47
2022-11-01T00:26:35.497Z,96549.53
2022-11-01T00:29:02.325Z,96543.06
2022-11-01T00:31:29.652Z,96545.88
2022-11-01T00:33:56.843Z,96542.63
2022-11-01T00:36:24.450Z,96540.63
2022-11-01T00:38:52.486Z,96541.41
2022-11-01T00:41:21.636Z,96540.97
2022-11-01T00:43:49.103Z,96542.22
2022-11-01T00:46:17.087Z,96543.84
2022-11-01T00:48:44.140Z,96532.88
2022-11-01T00:51:11.002Z,96532.91
2022-11-01T00:53:37.988Z,96532.06
2022-11-01T00:56:06.852Z,96534.72
2022-11-01T00:58:34.014Z,96537.16
2022-11-01T01:01:01.168Z,96537.78
2022-11-01T01:03:28.086Z,96540.38
2022-11-01T01:05:56.147Z,96536.53
2022-11-01T01:08:23.625Z,96526.81
2022-11-01T01:10:50.957Z,96549.13
2022-11-01T01:13:18.072Z,96542.03
2022-11-01T01:15:45.347Z,96523.63
2022-11-01T01:18:12.531Z,96532.09
2022-11-01T01:20:39.435Z,96533.72
2022-11-01T01:23:06.490Z,96535.91
2022-11-01T01:25:33.266Z,96535.84
2022-11-01T01:28:00.338Z,96536.44
2022-11-01T01:30:27.387Z,96540.91
2022-11-01T01:32:54.167Z,96535.63
2022-11-01T01:35:20.936Z,96537.63
2022-11-01T01:37:47.707Z,96531.97
2022-11-01T01:40:14.576Z,96522.84
2022-11-01T01:42:43.300Z,96521.38
2022-11-01T01:45:36.448Z,96520.00
2022-11-01T01:48:26.213Z,96514.94
2022-11-01T01:51:04.519Z,96521.81
2022-11-01T01:53:45.232Z,96523.00
2022-11-01T01:56:18.239Z,96517.75
2022-11-01T01:58:54.880Z,96512.25
2022-11-01T02:01:22.213Z,96512.88
2022-11-01T02:03:49.930Z,96505.59
2022-11-01T02:06:19.729Z,96505.00
2022-11-01T02:08:50.368Z,96509.63
2022-11-01T02:11:19.052Z,96513.56
2022-11-01T02:13:46.359Z,96510.50
2022-11-01T02:17:01.871Z,96509.72
2022-11-01T02:19:56.656Z,96503.47
2022-11-01T02:25:45.110Z,96511.91
2022-11-01T02:29:08.155Z,96514.75
2022-11-01T02:31:58.659Z,96549.03
2022-11-01T02:34:44.420Z,96561.84
2022-11-01T02:37:35.370Z,96544.53
2022-11-01T02:40:24.600Z,96548.38
2022-11-01T02:42:59.109Z,96549.75
2022-11-01T02:45:37.374Z,96547.13
2022-11-01T02:48:05.627Z,96540.81
2022-11-01T02:50:56.300Z,96536.78
2022-11-01T02:53:23.964Z,96544.94
2022-11-01T02:55:54.197Z,96528.81
2022-11-01T02:58:28.775Z,96530.13
2022-11-01T03:00:56.929Z,96534.91
2022-11-01T03:03:34.171Z,96550.66
2022-11-01T03:06:00.887Z,96553.13
2022-11-01T03:08:46.913Z,96547.03
2022-11-01T03:11:18.479Z,96552.19
2022-11-01T03:14:04.720Z,96554.34
2022-11-01T03:17:04.431Z,96550.13
2022-11-01T03:19:40.314Z,96554.94
2022-11-01T03:22:45.123Z,96555.31
2022-11-01T03:25:41.661Z,96567.41
2022-11-01T03:28:21.530Z,96563.72
2022-11-01T03:31:02.222Z,96565.28
2022-11-01T03:33:30.694Z,96571.28
2022-11-01T03:36:03.475Z,96584.84
2022-11-01T03:38:37.804Z,96585.66
2022-11-01T03:41:09.606Z,96588.72
2022-11-01T03:43:36.993Z,96588.09
2022-11-01T03:46:05.152Z,96588.91
2022-11-01T03:48:31.951Z,96586.63
2022-11-01T03:50:58.770Z,96596.88
2022-11-01T03:53:25.737Z,96600.06
2022-11-01T03:55:52.545Z,96599.59
2022-11-01T03:58:19.800Z,96609.38
2022-11-01T04:00:47.203Z,96604.22
2022-11-01T04:03:14.184Z,96604.03
2022-11-01T04:05:42.493Z,96608.03
2022-11-01T04:08:11.381Z,96603.25
2022-11-01T04:10:38.323Z,96606.53
2022-11-01T04:13:05.630Z,96607.31
2022-11-01T04:15:51.016Z,96604.91
2022-11-01T04:18:42.153Z,96612.84
2022-11-01T04:21:11.025Z,96608.69
2022-11-01T04:23:38.079Z,96611.13
2022-11-01T04:26:07.185Z,96616.28
2022-11-01T04:28:34.144Z,96619.00
2022-11-01T04:31:00.952Z,96631.84
2022-11-01T04:33:27.771Z,96625.03
2022-11-01T04:35:54.573Z,96625.50
2022-11-01T04:38:21.724Z,96627.56
2022-11-01T04:40:48.513Z,96627.84
2022-11-01T04:43:16.225Z,96637.00
2022-11-01T04:45:43.064Z,96645.50
2022-11-01T04:48:13.505Z,96645.84
2022-11-01T04:50:42.058Z,96637.38
2022-11-01T04:53:10.229Z,96640.06
2022-11-01T04:55:37.317Z,96630.84
2022-11-01T04:58:04.812Z,96628.31
2022-11-01T05:00:33.133Z,96634.63
2022-11-01T05:03:05.982Z,96623.22
2022-11-01T05:05:33.975Z,96635.31
2022-11-01T05:08:05.886Z,96647.78
2022-11-01T05:10:34.226Z,96648.84
2022-11-01T05:13:02.178Z,96645.25
2022-11-01T05:15:29.193Z,96650.81
2022-11-01T05:17:56.664Z,96647.53
2022-11-01T05:20:23.735Z,96665.88
2022-11-01T05:22:50.565Z,96663.78
2022-11-01T05:25:17.943Z,96660.03
2022-11-01T05:27:44.789Z,96669.78
2022-11-01T05:30:12.567Z,96672.22
2022-11-01T05:32:39.386Z,96665.13
2022-11-01T05:35:07.152Z,96670.31
2022-11-01T05:37:35.797Z,96681.44
2022-11-01T05:40:03.666Z,96673.69
2022-11-01T05:42:30.426Z,96675.13
2022-11-01T05:44:57.301Z,96670.88
2022-11-01T05:47:24.066Z,96679.38
2022-11-01T05:49:50.824Z,96678.81
2022-11-01T05:52:17.607Z,96687.66
2022-11-01T05:54:44.418Z,96696.09
2022-11-01T05:57:11.236Z,96699.34
2022-11-01T05:59:38.002Z,96699.88
2022-11-01T06:02:04.881Z,96696.13
2022-11-01T06:04:31.729Z,96702.03
2022-11-01T06:06:58.529Z,96696.09
2022-11-01T06:09:25.301Z,96706.69
2022-11-01T06:11:52.256Z,96706.28
2022-11-01T06:14:19.111Z,96708.66
2022-11-01T06:16:45.922Z,96718.56
2022-11-01T06:19:12.831Z,96718.91
2022-11-01T06:21:39.616Z,96733.00
2022-11-01T06:24:06.674Z,96727.44
2022-11-01T06:26:33.483Z,96743.44
2022-11-01T06:29:02.234Z,96751.53
2022-11-01T06:31:29.145Z,96753.72
2022-11-01T06:33:55.936Z,96750.31
2022-11-01T06:36:23.237Z,96768.25
2022-11-01T06:38:50.291Z,96766.63
2022-11-01T06:41:17.374Z,96776.50
2022-11-01T06:43:44.195Z,96783.09
2022-11-01T06:46:11.004Z,96787.47
2022-11-01T06:48:37.836Z,96793.44
2022-11-01T06:51:05.590Z,96799.69
2022-11-01T06:53:32.559Z,96794.53
2022-11-01T06:56:01.028Z,96804.22
2022-11-01T06:58:28.378Z,96804.94
2022-11-01T07:00:55.273Z,96806.47
2022-11-01T07:03:22.110Z,96807.28
2022-11-01T07:05:50.052Z,96814.59
2022-11-01T07:08:17.295Z,96813.59
2022-11-01T07:10:44.374Z,96815.22
2022-11-01T07:13:13.936Z,96826.91
2022-11-01T07:15:41.287Z,96827.41
2022-11-01T07:18:08.744Z,96832.75
2022-11-01T07:20:41.924Z,96830.44
2022-11-01T07:23:15.873Z,96834.44
2022-11-01T07:25:43.753Z,96833.19
2022-11-01T07:28:10.959Z,96832.03
2022-11-01T07:30:37.846Z,96839.16
2022-11-01T07:33:05.535Z,96843.03
2022-11-01T07:35:34.077Z,96842.00
2022-11-01T07:38:03.832Z,96860.78
2022-11-01T07:40:33.432Z,96852.72
2022-11-01T07:43:01.315Z,96858.47
2022-11-01T07:45:31.413Z,96853.81
2022-11-01T07:48:05.196Z,96862.94
2022-11-01T07:50:34.053Z,96861.75
2022-11-01T07:53:05.883Z,96862.25
2022-11-01T07:55:33.223Z,96861.06
2022-11-01T07:58:00.312Z,96860.28
2022-11-01T08:00:28.019Z,96859.75
2022-11-01T08:03:06.727Z,96862.16
2022-11-01T08:05:34.860Z,96856.28
2022-11-01T08:08:02.347Z,96868.00
2022-11-01T08:10:30.103Z,96863.88
2022-11-01T08:13:06.736Z,96871.22
2022-11-01T08:15:34.550Z,96867.97
2022-11-01T08:18:02.085Z,96870.97
2022-11-01T08:20:29.966Z,96861.72
2022-11-01T08:22:57.927Z,96863.28
2022-11-01T08:25:25.123Z,96864.53
2022-11-01T08:27:52.421Z,96864.19
2022-11-01T08:30:20.818Z,96856.75
2022-11-01T08:32:47.666Z,96854.59
2022-11-01T08:35:14.778Z,96863.38
2022-11-01T08:37:52.478Z,96870.25
2022-11-01T08:40:20.949Z,96858.41
2022-11-01T08:42:48.714Z,96856.09
2022-11-01T08:45:16.186Z,96860.91
2022-11-01T08:47:43.530Z,96855.31
2022-11-01T08:50:13.541Z,96860.31
2022-11-01T08:52:41.124Z,96866.59
2022-11-01T08:55:09.518Z,96868.28
2022-11-01T08:57:36.427Z,96853.97
2022-11-01T09:00:07.107Z,96850.06
2022-11-01T09:02:34.383Z,96852.56
2022-11-01T09:05:05.048Z,96856.78
2022-11-01T09:07:36.200Z,96870.56
2022-11-01T09:10:04.224Z,96858.94
2022-11-01T09:12:31.204Z,96857.22
2022-11-01T09:14:58.136Z,96852.09
2022-11-01T09:17:24.994Z,96854.13
2022-11-01T09:19:51.937Z,96868.31
2022-11-01T09:22:18.809Z,96878.19
2022-11-01T09:24:45.647Z,96872.28
2022-11-01T09:27:12.683Z,96871.06
2022-11-01T09:29:40.502Z,96876.69
2022-11-01T09:32:07.274Z,96877.44
2022-11-01T09:34:35.013Z,96871.66
2022-11-01T09:37:02.245Z,96874.88
2022-11-01T09:39:29.023Z,96882.28
2022-11-01T09:42:13.343Z,96882.94
2022-11-01T09:44:45.110Z,96874.00
2022-11-01T09:47:22.427Z,96881.22
2022-11-01T09:50:17.595Z,96869.59
2022-11-01T09:52:44.631Z,96877.88
2022-11-01T09:55:17.747Z,96866.84
2022-11-01T09:57:55.569Z,96866.94
2022-11-01T10:00:22.661Z,96866.59
2022-11-01T10:03:30.086Z,96867.97
2022-11-01T10:06:16.208Z,96852.97
2022-11-01T10:09:46.262Z,96854.84
2022-11-01T10:13:10.752Z,96852.53
2022-11-01T10:16:03.228Z,96858.16
2022-11-01T10:18:32.648Z,96850.28
2022-11-01T10:21:12.536Z,96853.16
2022-11-01T10:23:45.014Z,96852.75
2022-11-01T10:26:20.971Z,96856.88
2022-11-01T10:29:06.565Z,96856.06
2022-11-01T10:31:41.139Z,96863.13
2022-11-01T10:34:24.603Z,96865.19
2022-11-01T10:36:56.179Z,96870.72
2022-11-01T10:42:18.773Z,96878.47
2022-11-01T10:44:57.317Z,96875.28
2022-11-01T10:47:24.968Z,96870.94
2022-11-01T10:50:12.131Z,96877.50
2022-11-01T10:52:56.119Z,96874.78
2022-11-01T10:55:39.988Z,96869.47
2022-11-01T10:58:30.583Z,96874.50
2022-11-01T11:00:57.633Z,96866.00
2022-11-01T11:03:31.079Z,96864.97
2022-11-01T11:06:04.869Z,96862.09
2022-11-01T11:08:33.367Z,96867.69
2022-11-01T11:11:15.314Z,96868.47
2022-11-01T11:13:53.270Z,96875.41
2022-11-01T11:16:37.674Z,96875.88
2022-11-01T11:19:21.052Z,96876.25
2022-11-01T11:21:50.470Z,96879.66
2022-11-01T11:24:25.037Z,96870.84
2022-11-01T11:26:55.580Z,96875.91
2022-11-01T11:29:41.232Z,96862.53
2022-11-01T11:32:38.752Z,96861.38
2022-11-01T11:35:16.875Z,96862.69
2022-11-01T11:38:06.294Z,96857.34
2022-11-01T11:40:39.540Z,96863.53
2022-11-01T11:43:33.882Z,96860.69
2022-11-01T11:46:21.016Z,96851.69
2022-11-01T11:48:57.237Z,96846.78
2022-11-01T11:51:28.875Z,96847.44
2022-11-01T11:54:22.123Z,96854.75
2022-11-01T11:57:11.740Z,96846.44
2022-11-01T11:59:41.053Z,96841.13
2022-11-01T12:02:27.642Z,96844.78
2022-11-01T12:05:08.478Z,96848.00
2022-11-01T12:07:49.021Z,96854.34
2022-11-01T12:10:39.920Z,96856.88
2022-11-01T12:13:33.915Z,96849.63
2022-11-01T12:16:16.850Z,96848.81
2022-11-01T12:18:47.742Z,96850.44
2022-11-01T12:21:33.643Z,96851.88
2022-11-01T12:24:18.400Z,96854.22
2022-11-01T12:26:46.664Z,96854.47
2022-11-01T12:29:41.456Z,96856.41
2022-11-01T12:32:20.820Z,96847.84
2022-11-01T12:34:50.154Z,96850.16
2022-11-01T12:37:47.650Z,96845.50
2022-11-01T12:40:36.360Z,96850.25
2022-11-01T12:43:16.539Z,96853.22
2022-11-01T12:45:55.300Z,96850.03
2022-11-01T12:48:53.338Z,96850.81
2022-11-01T12:51:29.170Z,96854.03
2022-11-01T12:54:15.288Z,96849.59
2022-11-01T12:56:42.113Z,96860.19
2022-11-01T12:59:13.158Z,96859.53
2022-11-01T13:01:42.663Z,96854.72
2022-11-01T13:04:28.958Z,96851.81
2022-11-01T13:07:15.964Z,96857.09
2022-11-01T13:10:05.396Z,96851.22
2022-11-01T13:13:20.727Z,96847.31
2022-11-01T13:16:02.405Z,96850.47
2022-11-01T13:19:05.719Z,96849.13
2022-11-01T13:21:54.101Z,96846.47
2022-11-01T13:24:47.101Z,96851.72
2022-11-01T13:27:23.560Z,96851.25
2022-11-01T13:29:59.214Z,96849.06
2022-11-01T13:32:44.578Z,96849.78
2022-11-01T13:35:32.000Z,96855.47
2022-11-01T13:38:22.807Z,96854.22
2022-11-01T13:41:07.610Z,96857.78
2022-11-01T13:43:58.972Z,96855.41
2022-11-01T13:47:02.611Z,96855.16
2022-11-01T13:49:45.207Z,96864.31
2022-11-01T13:52:26.668Z,96867.44
2022-11-01T13:55:18.341Z,96855.69
2022-11-01T13:57:45.450Z,96860.97
2022-11-01T14:00:41.427Z,96871.19
2022-11-01T14:03:30.548Z,96864.94
2022-11-01T14:06:09.567Z,96870.06
2022-11-01T14:09:26.097Z,96872.72
2022-11-01T14:11:58.553Z,96866.59
2022-11-01T14:14:31.385Z,96870.16
2022-11-01T14:17:16.549Z,96870.47
2022-11-01T14:19:45.103Z,96858.34
2022-11-01T14:22:27.508Z,96866.25
2022-11-01T14:24:58.461Z,96860.91
2022-11-01T14:27:37.424Z,96868.44
2022-11-01T14:30:26.024Z,96867.06
2022-11-01T14:33:00.985Z,96872.69
2022-11-01T14:35:33.475Z,96859.94
2022-11-01T14:38:07.208Z,96868.31
2022-11-01T14:40:49.377Z,96869.94
2022-11-01T14:43:33.341Z,96864.09
2022-11-01T14:46:22.741Z,96875.03
2022-11-01T14:49:01.713Z,96879.13
2022-11-01T14:52:03.592Z,96880.53
2022-11-01T14:54:58.135Z,96868.09
2022-11-01T14:57:31.923Z,96870.38
2022-11-01T15:00:12.795Z,96880.81
2022-11-01T15:02:40.242Z,96878.31
2022-11-01T15:05:13.776Z,96882.41
2022-11-01T15:07:42.121Z,96873.25
2022-11-01T15:10:12.502Z,96879.66
2022-11-01T15:13:02.299Z,96886.16
2022-11-01T15:15:35.970Z,96886.28
2022-11-01T15:18:15.069Z,96879.44
2022-11-01T15:20:47.888Z,96881.53
2022-11-01T15:23:40.397Z,96887.56
2022-11-01T15:26:14.758Z,96889.53
2022-11-01T15:29:04.126Z,96893.03
2022-11-01T15:31:34.849Z,96885.75
2022-11-01T15:34:25.285Z,96894.38
2022-11-01T15:36:52.658Z,96897.44
2022-11-01T15:39:24.287Z,96902.47
2022-11-01T15:41:54.668Z,96905.00
2022-11-01T15:44:29.652Z,96900.59
2022-11-01T15:47:02.240Z,96896.63
2022-11-01T15:49:48.361Z,96902.88
2022-11-01T15:52:22.947Z,96893.16
2022-11-01T15:55:26.143Z,96906.78
2022-11-01T15:57:55.823Z,96904.00
2022-11-01T16:00:36.111Z,96905.38
2022-11-01T16:03:17.560Z,96905.28
2022-11-01T16:05:59.933Z,96916.72
2022-11-01T16:08:39.571Z,96910.44
2022-11-01T16:11:07.499Z,96913.91
2022-11-01T16:13:34.888Z,96916.44
2022-11-01T16:16:12.552Z,96913.19
2022-11-01T16:18:45.006Z,96914.81
2022-11-01T16:21:21.258Z,96911.22
2022-11-01T16:24:11.110Z,96915.81
2022-11-01T16:27:00.293Z,96919.16
2022-11-01T16:29:51.419Z,96920.44
2022-11-01T16:32:35.797Z,96936.38
2022-11-01T16:35:32.845Z,96942.16
2022-11-01T16:38:00.913Z,96947.91
2022-11-01T16:40:31.968Z,96947.63
2022-11-01T16:42:59.730Z,96951.78
2022-11-01T16:45:27.103Z,96947.72
2022-11-01T16:47:58.280Z,96953.53
2022-11-01T16:50:26.129Z,96958.13
2022-11-01T16:52:52.909Z,96962.69
2022-11-01T16:55:22.677Z,96958.28
2022-11-01T16:57:53.043Z,96971.09
2022-11-01T17:00:19.881Z,96974.41
2022-11-01T17:02:47.909Z,96973.94
2022-11-01T17:05:20.939Z,96974.94
2022-11-01T17:07:47.950Z,96987.63
2022-11-01T17:10:19.682Z,96979.44
2022-11-01T17:12:46.723Z,96988.22
2022-11-01T17:15:15.405Z,96993.94
2022-11-01T17:17:45.766Z,96985.03
2022-11-01T17:20:23.804Z,96991.56
2022-11-01T17:22:52.220Z,96993.41
2022-11-01T17:25:20.264Z,96994.22
2022-11-01T17:27:51.039Z,97002.84
2022-11-01T17:30:19.665Z,97000.09
2022-11-01T17:32:46.909Z,97004.19
2022-11-01T17:35:15.147Z,97004.81
2022-11-01T17:37:42.594Z,97001.34
2022-11-01T17:40:21.988Z,97000.53
2022-11-01T17:42:48.788Z,97003.78
2022-11-01T17:45:15.637Z,97005.03
2022-11-01T17:47:42.430Z,97009.56
2022-11-01T17:50:15.418Z,97013.34
2022-11-01T17:52:43.204Z,97016.22
2022-11-01T17:55:11.643Z,97007.47
2022-11-01T17:57:40.962Z,97009.53
2022-11-01T18:00:08.934Z,97008.59
2022-11-01T18:02:35.750Z,97006.19
2022-11-01T18:05:02.564Z,97019.28
2022-11-01T18:07:38.449Z,97006.19
2022-11-01T18:10:19.064Z,97018.50
2022-11-01T18:13:19.304Z,97023.00
2022-11-01T18:16:31.345Z,97015.69
2022-11-01T18:19:20.265Z,97020.81
2022-11-01T18:22:16.755Z,97023.88
2022-11-01T18:24:55.703Z,97028.78
2022-11-01T18:27:35.782Z,97017.72
2022-11-01T18:30:13.890Z,97017.31
2022-11-01T18:33:19.431Z,97015.28
2022-11-01T18:35:56.802Z,97016.72
2022-11-01T18:39:06.502Z,97027.19
2022-11-01T18:41:33.701Z,97030.03
2022-11-01T18:44:01.784Z,97019.22
2022-11-01T18:46:44.399Z,97028.00
2022-11-01T18:49:12.861Z,97027.38
2022-11-01T18:51:40.664Z,97029.66
2022-11-01T18:54:11.946Z,97025.16
2022-11-01T18:56:41.200Z,97023.53
2022-11-01T18:59:30.621Z,97034.38
2022-11-01T19:02:18.364Z,97035.38
2022-11-01T19:04:46.611Z,97031.72
2022-11-01T19:07:20.440Z,97030.09
2022-11-01T19:10:03.149Z,97026.03
2022-11-01T19:12:39.297Z,97030.53
2022-11-01T19:15:21.218Z,97022.81
2022-11-01T19:17:59.563Z,97030.56
2022-11-01T19:20:38.786Z,97022.41
2022-11-01T19:23:16.250Z,97023.25
2022-11-01T19:25:43.961Z,97028.56
2022-11-01T19:28:34.962Z,97022.28
2022-11-01T19:31:20.360Z,97027.38
2022-11-01T19:33:50.338Z,97027.00
2022-11-01T19:36:23.097Z,97026.19
2022-11-01T19:38:51.371Z,97016.03
2022-11-01T19:41:33.200Z,97018.47
2022-11-01T19:44:12.472Z,97016.88
2022-11-01T19:46:39.399Z,97012.81
2022-11-01T19:49:24.433Z,97013.22
2022-11-01T19:52:27.132Z,97019.88
2022-11-01T19:54:55.223Z,97014.00
2022-11-01T19:57:37.437Z,97010.91
2022-11-01T20:00:17.954Z,97014.16
2022-11-01T20:02:45.510Z,97017.19
2022-11-01T20:05:33.403Z,97014.72
2022-11-01T20:08:21.955Z,97023.63
2022-11-01T20:10:48.990Z,97025.84
2022-11-01T20:13:15.891Z,97025.84
2022-11-01T20:15:42.904Z,97035.00
2022-11-01T20:18:10.765Z,97036.59
2022-11-01T20:20:37.786Z,97042.66
2022-11-01T20:23:25.226Z,97050.34
2022-11-01T20:25:51.807Z,97052.38
2022-11-01T20:28:18.667Z,97053.78
2022-11-01T20:30:45.474Z,97053.59
2022-11-01T20:33:13.329Z,97057.25
2022-11-01T20:35:40.145Z,97058.88
2022-11-01T20:38:07.179Z,97056.88
2022-11-01T20:40:34.074Z,97065.59
2022-11-01T20:43:01.323Z,97070.25
2022-11-01T20:45:28.404Z,97058.44
2022-11-01T20:47:55.330Z,97069.34
2022-11-01T20:50:22.136Z,97060.84
2022-11-01T20:52:49.504Z,97062.38
2022-11-01T20:55:17.090Z,97064.00
2022-11-01T20:57:44.126Z,97063.66
2022-11-01T21:00:18.030Z,97075.84
2022-11-01T21:02:46.680Z,97077.00
2022-11-01T21:05:30.071Z,97074.97
2022-11-01T21:08:25.942Z,97072.88
2022-11-01T21:11:02.192Z,97073.25
2022-11-01T21:13:36.402Z,97078.66
2022-11-01T21:16:08.674Z,97068.25
2022-11-01T21:18:38.868Z,97071.88
2022-11-01T21:21:14.704Z,97079.56
2022-11-01T21:23:46.171Z,97073.81
2022-11-01T21:26:33.905Z,97076.81
2022-11-01T21:29:16.269Z,97080.63
2022-11-01T21:31:43.203Z,97083.38
2022-11-01T21:34:10.063Z,97084.78
2022-11-01T21:36:48.576Z,97079.25
2022-11-01T21:39:23.991Z,97073.47
2022-11-01T21:41:54.941Z,97082.38
2022-11-01T21:44:26.802Z,97071.84
2022-11-01T21:47:11.818Z,97070.59
2022-11-01T21:49:38.783Z,97081.50
2022-11-01T21:52:08.297Z,97078.59
2022-11-01T21:54:37.623Z,97083.44
2022-11-01T21:57:07.079Z,97076.09
2022-11-01T21:59:34.357Z,97067.31
2022-11-01T22:02:02.361Z,97073.19
2022-11-01T22:04:31.013Z,97070.78
2022-11-01T22:07:03.817Z,97062.59
2022-11-01T22:09:31.852Z,97071.03
2022-11-01T22:12:01.812Z,97070.59
2022-11-01T22:14:28.718Z,97062.34
2022-11-01T22:16:55.691Z,97072.88
2022-11-01T22:19:22.646Z,97068.34
2022-11-01T22:21:49.443Z,97058.22
2022-11-01T22:24:16.225Z,97059.84
2022-11-01T22:26:43.035Z,97060.47
2022-11-01T22:29:09.807Z,97058.22
2022-11-01T22:31:36.600Z,97067.91
2022-11-01T22:34:03.391Z,97065.47
2022-11-01T22:36:37.048Z,97065.47
2022-11-01T22:39:22.750Z,97064.22
2022-11-01T22:41:49.917Z,97063.66
2022-11-01T22:44:29.832Z,97056.81
2022-11-01T22:47:02.084Z,97059.53
2022-11-01T22:49:40.778Z,97066.78
2022-11-01T22:52:31.869Z,97065.06
2022-11-01T22:55:09.922Z,97064.22
2022-11-01T22:57:59.669Z,97072.78
2022-11-01T23:00:39.752Z,97071.22
2022-11-01T23:03:16.355Z,97065.34
2022-11-01T23:05:43.413Z,97064.88
2022-11-01T23:08:32.417Z,97064.53
2022-11-01T23:11:00.314Z,97060.81
2022-11-01T23:13:52.004Z,97073.75
2022-11-01T23:16:33.312Z,97064.78
2022-11-01T23:19:03.433Z,97073.88
2022-11-01T23:21:30.269Z,97071.84
2022-11-01T23:23:57.167Z,97066.41
2022-11-01T23:26:24.478Z,97065.69
2022-11-01T23:28:54.298Z,97072.25
2022-11-01T23:31:21.792Z,97071.88
2022-11-01T23:33:50.131Z,97069.16
2022-11-01T23:36:26.210Z,97077.84
2022-11-01T23:39:08.865Z,97082.38
2022-11-01T23:41:44.103Z,97079.84
2022-11-01T23:44:40.162Z,97080.31
2022-11-01T23:47:37.909Z,97085.22
2022-11-01T23:50:19.947Z,97078.06
2022-11-01T23:52:53.906Z,97084.75
2022-11-01T23:55:36.308Z,97086.81
2022-11-01T23:58:10.790Z,97078.00
